Time;durP1;ratioP1;P1;durP2;ratioP2;P2;SDS_P1;SDS_P2;PMS_P1;PMS_P2;Temp;Humidity;BMP_temperature;BMP_pressure;BME280_temperature;BME280_humidity;BME280_pressure;Samples;Min_cycle;Max_cycle;Signal;HPM_P1;HPM_P2
2022/06/20 07:59:17;;;;;;;5.72;2.15;;;;;;;16.41;61.39;101423.00;5286586;28;20385;-72
2022/06/20 08:01:57;;;;;;;7.97;2.25;;;;;;;16.36;60.00;101428.72;5294355;28;20021;-72
2022/06/20 08:04:32;;;;;;;8.48;2.55;;;;;;;16.17;60.00;101434.47;5279262;28;20476;-72
2022/06/20 08:07:45;;;;;;;4.88;2.30;;;;;;;16.28;58.68;101427.47;5290211;28;20025;-70
2022/06/20 08:10:23;;;;;;;3.47;1.80;;;;;;;16.64;58.31;101432.25;5268499;28;20450;-71
2022/06/20 08:13:06;;;;;;;2.83;1.67;;;;;;;16.92;58.23;101417.03;5261237;28;20033;-71
2022/06/20 08:15:50;;;;;;;4.75;2.10;;;;;;;16.99;56.10;101429.75;5281661;28;20044;-72
2022/06/20 08:18:23;;;;;;;5.90;2.40;;;;;;;17.21;57.13;101421.34;5280982;28;20070;-71
2022/06/20 08:21:00;;;;;;;5.00;2.28;;;;;;;17.24;57.99;101434.72;5294086;28;20108;-71
2022/06/20 08:23:38;;;;;;;5.03;2.47;;;;;;;17.06;59.44;101430.97;5290204;28;20371;-71
2022/06/20 08:26:16;;;;;;;8.20;4.80;;;;;;;17.03;60.01;101428.00;5295292;28;20039;-71
2022/06/20 08:28:56;;;;;;;7.60;3.53;;;;;;;17.06;60.63;101427.34;5266201;28;20073;-72
2022/06/20 08:31:37;;;;;;;8.93;2.63;;;;;;;17.05;60.56;101434.06;5290519;28;20217;-72
2022/06/20 08:34:56;;;;;;;10.00;3.30;;;;;;;17.12;59.46;101438.09;5289776;28;20032;-71
2022/06/20 08:37:39;;;;;;;6.05;2.47;;;;;;;16.84;58.56;101445.78;5244791;28;20513;-71
2022/06/20 08:40:39;;;;;;;6.30;2.40;;;;;;;16.89;57.48;101445.66;5240073;28;20026;-71
2022/06/20 08:43:40;;;;;;;5.18;2.70;;;;;;;17.06;58.15;101446.97;5269910;28;20039;-72
2022/06/20 08:46:39;;;;;;;8.35;2.47;;;;;;;17.21;57.94;101445.75;5284017;28;20029;-72
2022/06/20 08:49:40;;;;;;;4.10;2.35;;;;;;;17.47;54.22;101454.31;5272268;28;20177;-71
2022/06/20 08:52:29;;;;;;;5.20;2.45;;;;;;;17.60;53.86;101444.97;5273102;28;20029;-71
2022/06/20 08:55:18;;;;;;;4.50;2.38;;;;;;;17.70;54.29;101458.69;5269465;28;20028;-72
2022/06/20 08:58:04;;;;;;;5.85;2.45;;;;;;;17.62;56.00;101461.47;5284855;28;20102;-71
2022/06/20 09:00:55;;;;;;;10.02;3.70;;;;;;;17.47;56.46;101459.91;5293392;28;20395;-72
2022/06/20 09:03:27;;;;;;;7.00;3.08;;;;;;;17.26;56.99;101460.44;5287811;28;20016;-72
2022/06/20 09:06:25;;;;;;;8.90;2.78;;;;;;;17.28;56.79;101472.19;5285106;28;20063;-72
2022/06/20 09:09:09;;;;;;;6.65;3.53;;;;;;;17.29;55.88;101473.81;5275459;28;20537;-71
2022/06/20 09:11:40;;;;;;;5.95;2.40;;;;;;;17.42;54.58;101474.88;5274089;28;20111;-70
2022/06/20 09:14:25;;;;;;;5.20;3.10;;;;;;;17.68;53.52;101474.19;5280969;28;20036;-70
2022/06/20 09:17:26;;;;;;;5.10;2.53;;;;;;;17.89;53.36;101477.28;5254805;28;20119;-70
2022/06/20 09:20:31;;;;;;;4.30;2.05;;;;;;;18.16;52.87;101473.44;5267916;28;20036;-71
2022/06/20 09:23:21;;;;;;;3.33;2.13;;;;;;;18.22;52.37;101478.53;5252308;28;20036;-70
2022/06/20 09:26:13;;;;;;;6.40;2.97;;;;;;;17.89;52.82;101471.66;5264176;28;20025;-71
2022/06/20 09:29:12;;;;;;;6.80;3.50;;;;;;;17.84;54.10;101478.25;5272877;28;20021;-71
2022/06/20 09:32:11;;;;;;;7.30;3.25;;;;;;;17.92;54.06;101483.09;5271469;28;20029;-71
2022/06/20 09:35:10;;;;;;;6.68;2.78;;;;;;;18.03;53.82;101483.63;5280053;28;20029;-71
2022/06/20 09:37:51;;;;;;;6.50;3.28;;;;;;;18.02;53.31;101476.34;5275366;28;20032;-71
2022/06/20 09:41:07;;;;;;;5.05;2.40;;;;;;;18.02;51.74;101481.94;5268234;28;20104;-71
2022/06/20 09:43:48;;;;;;;6.72;3.47;;;;;;;17.96;51.93;101474.84;5278101;28;20090;-69
2022/06/20 09:46:30;;;;;;;10.07;3.90;;;;;;;17.96;51.76;101480.44;5267520;28;20029;-72
2022/06/20 09:49:20;;;;;;;4.10;2.38;;;;;;;17.93;50.18;101483.91;5275598;28;20031;-71
2022/06/20 09:52:17;;;;;;;4.57;2.45;;;;;;;17.90;49.89;101484.56;5268594;28;20036;-71
2022/06/20 09:55:01;;;;;;;7.70;2.63;;;;;;;18.22;49.09;101478.53;5252121;28;20364;-71
2022/06/20 09:57:52;;;;;;;6.30;2.92;;;;;;;18.37;48.07;101473.63;5274138;28;20362;-72
2022/06/20 10:00:34;;;;;;;10.05;3.22;;;;;;;18.45;48.81;101467.19;5257144;28;20025;-69
2022/06/20 10:03:43;;;;;;;4.20;2.63;;;;;;;18.52;49.62;101473.16;5277443;28;20072;-69
2022/06/20 10:06:36;;;;;;;4.93;2.90;;;;;;;18.50;50.15;101458.63;5268134;28;20054;-70
2022/06/20 10:09:26;;;;;;;4.95;3.22;;;;;;;18.44;49.95;101482.41;5256959;28;20082;-72
2022/06/20 10:12:20;;;;;;;6.60;3.05;;;;;;;18.42;50.27;101477.09;5270374;28;20032;-68
2022/06/20 10:15:20;;;;;;;7.25;3.65;;;;;;;18.49;50.11;101475.81;5252548;28;20031;-73
2022/06/20 10:18:13;;;;;;;7.55;3.50;;;;;;;18.57;50.39;101481.44;5276245;28;20040;-72
2022/06/20 10:21:00;;;;;;;7.47;3.72;;;;;;;18.59;49.83;101490.38;5265816;28;20020;-68
2022/06/20 10:23:37;;;;;;;6.63;3.42;;;;;;;18.73;49.84;101481.78;5267747;28;20066;-68
2022/06/20 10:26:22;;;;;;;9.00;3.70;;;;;;;18.88;49.60;101483.28;5273569;28;20103;-68
2022/06/20 10:29:25;;;;;;;5.28;3.40;;;;;;;18.96;50.22;101490.91;5251941;28;20016;-68
2022/06/20 10:32:16;;;;;;;10.25;3.92;;;;;;;18.94;49.95;101479.16;5270063;28;20397;-67
2022/06/20 10:35:12;;;;;;;7.05;4.20;;;;;;;18.69;52.00;101501.28;5250928;28;20138;-71
2022/06/20 10:38:17;;;;;;;7.65;4.15;;;;;;;18.68;51.97;101508.03;5264991;28;20039;-72
2022/06/20 10:41:06;;;;;;;10.43;3.88;;;;;;;18.56;50.14;101507.88;5250928;28;20019;-71
2022/06/20 10:43:58;;;;;;;7.55;3.80;;;;;;;18.73;50.79;101509.03;5272149;28;20391;-71
2022/06/20 10:46:59;;;;;;;8.98;3.60;;;;;;;18.64;49.10;101515.47;5279206;28;20423;-72
2022/06/20 10:50:09;;;;;;;8.18;3.55;;;;;;;18.68;48.96;101522.09;5272102;28;20055;-72
2022/06/20 10:53:08;;;;;;;5.82;3.38;;;;;;;18.75;48.82;101524.44;5277460;28;20045;-71
2022/06/20 10:56:03;;;;;;;5.53;4.75;;;;;;;18.89;47.86;101518.66;5273304;28;20059;-72
2022/06/20 10:59:13;;;;;;;4.78;2.53;;;;;;;19.09;47.44;101520.00;5253006;28;20057;-71
2022/06/20 11:02:05;;;;;;;7.82;3.15;;;;;;;19.28;48.29;101517.66;5269803;28;20028;-72
2022/06/20 11:05:09;;;;;;;5.55;3.25;;;;;;;19.51;48.78;101523.09;5270238;28;20131;-70
2022/06/20 11:07:55;;;;;;;5.93;2.90;;;;;;;19.72;45.82;101521.25;5264715;28;20045;-71
2022/06/20 11:10:54;;;;;;;8.23;3.00;;;;;;;19.76;47.25;101527.00;5274837;28;20036;-71
2022/06/20 11:13:28;;;;;;;7.05;3.20;;;;;;;19.61;46.80;101527.53;5262387;28;20029;-68
2022/06/20 11:16:16;;;;;;;6.30;3.67;;;;;;;19.41;48.17;101537.50;5270425;28;20020;-69
2022/06/20 11:19:02;;;;;;;5.03;2.80;;;;;;;19.52;48.24;101530.38;5246881;28;20033;-67
2022/06/20 11:22:07;;;;;;;6.10;3.42;;;;;;;19.57;48.08;101537.81;5262709;28;20064;-68
2022/06/20 11:24:55;;;;;;;6.88;3.10;;;;;;;19.51;48.36;101529.53;5271529;28;20112;-69
2022/06/20 11:27:50;;;;;;;11.32;3.25;;;;;;;19.71;47.64;101527.19;5263737;28;20028;-68
2022/06/20 11:30:33;;;;;;;9.40;2.83;;;;;;;19.92;48.75;101530.94;5273821;28;20035;-72
2022/06/20 11:36:39;;;;;;;8.38;3.42;;;;;;;19.80;47.42;101527.19;5275664;28;20040;-72
2022/06/20 11:39:49;;;;;;;10.48;3.47;;;;;;;19.55;47.71;101530.50;5267041;28;20648;-72
2022/06/20 11:42:49;;;;;;;5.15;2.90;;;;;;;19.45;48.35;101533.69;5254432;28;20029;-72
2022/06/20 11:46:08;;;;;;;7.72;3.75;;;;;;;19.48;48.15;101535.84;5268911;28;20024;-73
2022/06/20 11:49:06;;;;;;;9.52;3.60;;;;;;;19.61;47.90;101530.34;5244299;28;20044;-71
2022/06/20 11:51:50;;;;;;;6.25;3.10;;;;;;;19.67;46.30;101520.59;5270197;28;20415;-75
2022/06/20 11:54:41;;;;;;;6.40;3.28;;;;;;;19.74;46.40;101520.91;5278155;28;20020;-77
2022/06/20 11:57:21;;;;;;;7.30;3.13;;;;;;;19.79;46.79;101517.94;5269125;28;20064;-74
2022/06/20 12:00:09;;;;;;;6.85;3.47;;;;;;;19.93;45.09;101521.34;5261178;28;20108;-73
2022/06/20 12:03:02;;;;;;;8.85;3.00;;;;;;;19.94;45.19;101517.38;5257747;28;20055;-73
2022/06/20 12:06:00;;;;;;;6.50;2.67;;;;;;;20.05;43.87;101523.44;5253311;28;20014;-71
2022/06/20 12:08:57;;;;;;;9.27;3.20;;;;;;;20.21;44.65;101515.25;5262166;28;20025;-72
2022/06/20 12:12:13;;;;;;;6.63;2.60;;;;;;;20.19;44.32;101517.56;5277631;28;20033;-72
2022/06/20 12:15:18;;;;;;;7.10;2.85;;;;;;;20.20;44.14;101530.50;5273731;28;20436;-72
2022/06/20 12:18:23;;;;;;;4.93;2.03;;;;;;;20.26;43.04;101520.69;5260998;28;20103;-71
2022/06/20 12:23:53;;;;;;;7.10;2.75;;;;;;;20.40;43.68;101512.84;5267708;28;20036;-73
2022/06/20 12:26:32;;;;;;;5.35;2.65;;;;;;;20.52;43.55;101514.91;5253380;28;20029;-74
2022/06/20 12:29:12;;;;;;;6.63;2.72;;;;;;;20.16;43.73;101521.06;5272892;28;20058;-72
2022/06/20 12:31:48;;;;;;;5.50;2.70;;;;;;;20.37;43.48;101512.66;5269691;28;20468;-72
2022/06/20 12:34:59;;;;;;;4.90;2.35;;;;;;;20.36;42.50;101514.66;5273895;28;20039;-71
2022/06/20 12:37:36;;;;;;;5.30;2.65;;;;;;;20.48;42.33;101513.09;5269897;28;20036;-72
2022/06/20 12:40:08;;;;;;;5.72;2.88;;;;;;;20.36;42.38;101511.03;5250048;28;20400;-73
2022/06/20 12:42:52;;;;;;;5.33;3.10;;;;;;;20.42;43.32;101513.28;5276056;28;20027;-72
2022/06/20 12:45:32;;;;;;;9.30;3.47;;;;;;;20.42;43.53;101509.66;5272885;28;20362;-72
2022/06/20 12:48:32;;;;;;;14.82;12.15;;;;;;;20.29;43.61;101507.94;5270351;28;20026;-72
2022/06/20 12:51:22;;;;;;;6.70;3.33;;;;;;;20.75;43.21;101512.63;5257860;28;20052;-73
2022/06/20 12:54:26;;;;;;;7.07;2.28;;;;;;;20.77;41.46;101515.94;5271549;28;20077;-73
2022/06/20 12:57:16;;;;;;;6.75;2.67;;;;;;;21.14;39.93;101516.13;5274039;28;20301;-72
2022/06/20 13:00:01;;;;;;;3.92;2.15;;;;;;;21.17;41.51;101523.09;5271831;28;20029;-72
2022/06/20 13:02:53;;;;;;;7.03;2.58;;;;;;;21.30;41.25;101526.78;5268417;28;20076;-75
2022/06/20 13:05:55;;;;;;;5.07;3.00;;;;;;;21.28;41.07;101524.28;5274043;28;20020;-74
2022/06/20 13:08:52;;;;;;;7.03;2.55;;;;;;;21.07;41.34;101521.50;5252679;28;20025;-74
2022/06/20 13:11:32;;;;;;;4.90;2.63;;;;;;;21.30;40.06;101524.78;5273838;28;20036;-74
2022/06/20 13:14:35;;;;;;;6.80;2.60;;;;;;;21.61;40.27;101524.31;5258763;28;20457;-74
2022/06/20 13:17:18;;;;;;;6.63;2.88;;;;;;;21.44;40.39;101527.31;5260713;28;20118;-73
2022/06/20 13:20:12;;;;;;;5.47;2.72;;;;;;;21.51;41.19;101529.59;5272150;28;20496;-75
2022/06/20 13:23:26;;;;;;;7.07;2.92;;;;;;;21.23;40.52;101530.97;5259352;28;20066;-73
2022/06/20 13:26:03;;;;;;;7.50;2.50;;;;;;;21.36;40.87;101539.50;5254542;28;20025;-73
2022/06/20 13:28:55;;;;;;;5.20;2.28;;;;;;;21.54;39.17;101541.00;5253185;28;20385;-73
2022/06/20 13:31:33;;;;;;;6.15;2.97;;;;;;;21.79;38.45;101543.91;5273560;28;20081;-74
2022/06/20 13:34:32;;;;;;;5.13;2.17;;;;;;;21.97;38.43;101539.69;5281353;28;20032;-74
2022/06/20 13:37:14;;;;;;;4.32;2.00;;;;;;;21.98;38.90;101541.31;5255567;28;20479;-72
2022/06/20 13:39:53;;;;;;;4.90;2.15;;;;;;;22.19;38.78;101534.75;5272015;28;20109;-71
2022/06/20 13:42:36;;;;;;;4.50;2.40;;;;;;;22.03;39.67;101532.63;5279484;28;20353;-73
2022/06/20 13:45:19;;;;;;;5.97;2.60;;;;;;;21.71;40.17;101538.00;5256604;28;20056;-73
2022/06/20 13:47:51;;;;;;;6.50;3.20;;;;;;;21.51;40.39;101536.06;5261310;28;20091;-73
2022/06/20 13:50:28;;;;;;;12.02;3.80;;;;;;;21.59;40.80;101540.78;5275688;28;20032;-71
2022/06/20 13:53:08;;;;;;;6.57;2.95;;;;;;;21.43;41.60;101543.44;5262781;28;20419;-72
2022/06/20 13:55:55;;;;;;;4.63;2.70;;;;;;;21.62;41.20;101539.25;5275012;28;20041;-72
2022/06/20 13:58:39;;;;;;;8.63;3.55;;;;;;;21.87;40.43;101551.44;5255406;28;20037;-71
2022/06/20 14:01:14;;;;;;;41.38;37.42;;;;;;;22.09;39.56;101559.47;5276967;28;20028;-72
2022/06/20 14:03:57;;;;;;;7.60;4.28;;;;;;;22.21;38.75;101550.22;5272532;28;20049;-73
2022/06/20 14:06:57;;;;;;;4.57;2.38;;;;;;;22.42;38.74;101552.09;5276676;28;20024;-72
2022/06/20 14:09:53;;;;;;;7.93;2.60;;;;;;;22.39;38.23;101539.50;5271797;28;20060;-72
2022/06/20 14:12:29;;;;;;;5.28;2.40;;;;;;;22.40;39.26;101548.81;5258018;28;20025;-73
2022/06/20 14:15:23;;;;;;;5.85;2.72;;;;;;;22.40;39.89;101551.66;5254042;28;20028;-72
2022/06/20 14:18:03;;;;;;;10.13;2.90;;;;;;;21.97;40.58;101555.81;5263220;28;20446;-74
2022/06/20 14:20:49;;;;;;;8.48;2.85;;;;;;;21.84;41.27;101552.13;5264639;28;20033;-74
2022/06/20 14:23:21;;;;;;;8.57;3.45;;;;;;;;;;5260006;28;20376;-74
2022/06/20 14:25:55;;;;;;;6.50;2.70;;;;;;;22.20;40.22;101547.75;5269090;28;20028;-73
2022/06/20 14:28:33;;;;;;;4.15;2.47;;;;;;;22.25;40.39;101551.16;5278339;28;20020;-75
2022/06/20 14:31:07;;;;;;;5.63;2.42;;;;;;;22.30;39.59;101550.09;5264642;28;20074;-74
2022/06/20 14:33:41;;;;;;;8.02;2.67;;;;;;;22.70;38.99;101549.34;5260082;28;20025;-73
2022/06/20 14:36:25;;;;;;;4.15;2.08;;;;;;;22.84;39.18;101563.97;5264043;28;20476;-74
2022/06/20 14:39:43;;;;;;;8.38;2.78;;;;;;;22.53;39.15;101553.28;5255787;28;20051;-74
2022/06/20 14:42:27;;;;;;;7.78;3.00;;;;;;;22.30;39.79;101553.75;5239438;28;20026;-74
2022/06/20 14:45:04;;;;;;;7.70;2.90;;;;;;;22.30;40.21;101553.75;5261937;28;20064;-72
2022/06/20 14:47:42;;;;;;;8.52;3.78;;;;;;;22.35;40.04;101559.16;5272587;28;20059;-73
2022/06/20 14:50:18;;;;;;;5.43;3.13;;;;;;;22.24;40.13;101559.97;5246937;28;20043;-74
2022/06/20 14:52:57;;;;;;;26.27;20.88;;;;;;;22.27;39.28;101556.47;5260704;28;20029;-73
2022/06/20 14:55:40;;;;;;;10.25;4.28;;;;;;;22.43;39.43;101553.75;5257013;28;20021;-74
2022/06/20 14:58:27;;;;;;;6.70;2.65;;;;;;;22.50;39.41;101568.94;5259665;28;20049;-75
2022/06/20 15:01:25;;;;;;;5.30;2.65;;;;;;;22.33;39.14;101563.53;5273209;28;20814;-74
2022/06/20 15:04:14;;;;;;;6.72;3.50;;;;;;;22.13;39.43;101560.41;5263025;28;20017;-76
2022/06/20 15:06:53;;;;;;;5.47;2.40;;;;;;;22.13;39.97;101566.06;5255629;28;20075;-75
2022/06/20 15:09:32;;;;;;;5.05;2.47;;;;;;;22.26;40.41;101563.28;5270649;28;20028;-74
2022/06/20 15:12:25;;;;;;;8.35;3.83;;;;;;;22.40;39.17;101565.78;5263468;28;20029;-74
2022/06/20 15:15:24;;;;;;;6.10;2.88;;;;;;;22.44;39.44;101567.53;5255268;28;20116;-74
2022/06/20 15:18:04;;;;;;;6.07;2.60;;;;;;;22.34;39.73;101567.97;5269953;28;20083;-74
2022/06/20 15:20:43;;;;;;;8.25;2.70;;;;;;;22.27;39.32;101560.13;5278233;28;20447;-74
2022/06/20 15:23:26;;;;;;;6.13;3.10;;;;;;;22.29;39.51;101562.56;5260373;28;20028;-73
2022/06/20 15:26:08;;;;;;;8.50;2.80;;;;;;;22.36;39.42;101554.34;5268981;28;20100;-74
2022/06/20 15:28:42;;;;;;;5.70;2.63;;;;;;;22.13;39.71;101554.75;5278904;28;20043;-75
2022/06/20 15:31:17;;;;;;;10.63;3.63;;;;;;;21.93;40.31;101547.19;5252926;28;20024;-75
2022/06/20 15:33:49;;;;;;;7.10;3.70;;;;;;;22.13;40.07;101546.28;5275324;28;20043;-75
2022/06/20 15:36:36;;;;;;;15.85;9.80;;;;;;;22.05;39.92;101557.69;5264697;28;20029;-72
2022/06/20 15:39:23;;;;;;;8.93;3.85;;;;;;;22.21;38.69;101555.03;5272943;28;20120;-74
2022/06/20 15:44:50;;;;;;;7.35;3.25;;;;;;;21.95;39.98;101558.97;5276812;28;20025;-74
2022/06/20 15:47:30;;;;;;;6.72;4.38;;;;;;;22.06;39.58;101560.19;5265493;28;20566;-75
2022/06/20 15:50:10;;;;;;;6.43;2.95;;;;;;;21.99;40.17;101547.81;5266791;28;20515;-75
2022/06/20 15:52:53;;;;;;;7.57;3.13;;;;;;;22.14;39.88;101541.47;5264223;28;20055;-75
2022/06/20 15:55:43;;;;;;;9.23;3.28;;;;;;;22.12;39.74;101544.66;5264052;28;20017;-75
2022/06/20 15:58:43;;;;;;;10.80;3.53;;;;;;;22.23;39.59;101541.38;5271817;28;20520;-76
2022/06/20 16:01:32;;;;;;;7.35;2.83;;;;;;;22.40;39.36;101538.34;5255971;28;20468;-75
2022/06/20 16:04:15;;;;;;;5.47;2.85;;;;;;;22.37;38.95;101550.34;5254941;28;20034;-75
2022/06/20 16:06:48;;;;;;;6.47;2.70;;;;;;;22.31;38.98;101546.09;5249187;28;20052;-76
2022/06/20 16:09:53;;;;;;;8.43;3.33;;;;;;;22.36;39.56;101548.69;5272770;28;20059;-75
2022/06/20 16:12:25;;;;;;;7.80;3.35;;;;;;;22.21;40.08;101546.56;5277267;28;20028;-73
2022/06/20 16:15:06;;;;;;;5.88;3.08;;;;;;;22.40;40.46;101538.34;5255593;28;20039;-76
2022/06/20 16:17:47;;;;;;;7.53;3.30;;;;;;;22.45;40.44;101548.59;5270127;28;20047;-76
2022/06/20 16:20:28;;;;;;;8.48;3.20;;;;;;;22.36;40.29;101545.84;5258511;28;20437;-77
2022/06/20 16:23:25;;;;;;;8.02;2.65;;;;;;;22.48;39.53;101547.88;5282911;28;20056;-77
2022/06/20 16:26:04;;;;;;;8.00;3.72;;;;;;;22.57;39.71;101543.75;5266923;28;20025;-71
2022/06/20 16:28:36;;;;;;;8.82;4.30;;;;;;;22.67;39.38;101542.41;5250537;28;20039;-70
2022/06/20 16:31:29;;;;;;;5.90;3.10;;;;;;;22.67;40.29;101538.78;5264510;28;20029;-70
2022/06/20 16:34:00;;;;;;;5.95;2.85;;;;;;;22.64;39.86;101540.31;5285713;28;20021;-71
2022/06/20 16:36:34;;;;;;;6.93;3.38;;;;;;;22.92;39.85;101543.19;5265229;28;20099;-69
2022/06/20 16:39:19;;;;;;;8.38;3.55;;;;;;;22.88;39.46;101539.44;5263473;28;20060;-70
2022/06/20 16:41:58;;;;;;;;;;;;;;;23.25;39.00;101539.34;5272246;28;20044;-70
2022/06/20 16:44:44;;;;;;;5.45;2.80;;;;;;;23.02;39.07;101543.91;5281515;28;20076;-70
2022/06/20 16:47:32;;;;;;;8.55;3.72;;;;;;;23.04;38.83;101541.56;5263411;28;20028;-72
2022/06/20 16:50:23;;;;;;;4.95;2.90;;;;;;;23.17;39.01;101540.34;5255788;28;20464;-74
2022/06/20 16:53:23;;;;;;;7.93;3.22;;;;;;;23.22;38.67;101542.91;5266105;28;20035;-75
2022/06/20 16:55:57;;;;;;;10.38;3.53;;;;;;;22.95;38.73;101539.66;5269502;28;20024;-74
2022/06/20 16:58:50;;;;;;;7.47;3.92;;;;;;;23.27;39.25;101545.47;5280799;28;20059;-74
2022/06/20 17:01:27;;;;;;;6.60;2.97;;;;;;;23.29;38.46;101556.44;5261030;28;20062;-74
2022/06/20 17:04:03;;;;;;;5.60;2.88;;;;;;;23.25;38.41;101547.84;5276991;28;20525;-75
2022/06/20 17:06:56;;;;;;;5.15;2.50;;;;;;;23.46;38.68;101546.81;5269100;28;20152;-76
2022/06/20 17:09:45;;;;;;;12.80;9.98;;;;;;;23.57;38.27;101540.28;5266677;28;20115;-75
2022/06/20 17:12:43;;;;;;;6.18;4.18;;;;;;;23.61;37.91;101543.19;5258036;28;20037;-75
2022/06/20 17:15:42;;;;;;;5.78;2.53;;;;;;;23.52;38.41;101545.34;5274337;28;20381;-72
2022/06/20 17:18:38;;;;;;;8.35;2.80;;;;;;;23.42;38.33;101539.06;5265332;28;20468;-74
2022/06/20 17:21:19;;;;;;;11.15;4.07;;;;;;;23.22;37.59;101537.25;5255954;28;20048;-74
2022/06/20 17:24:18;;;;;;;5.57;2.58;;;;;;;23.28;38.27;101546.31;5276966;28;20380;-74
2022/06/20 17:26:54;;;;;;;10.25;2.83;;;;;;;22.76;38.34;101537.47;5249677;28;20052;-75
2022/06/20 17:29:41;;;;;;;4.70;2.22;;;;;;;22.96;38.31;101540.50;5262674;28;20033;-75
